sensor_id;sensor_type;location;lat;lon;timestamp;pressure;altitude;pressure_sealevel;temperature;humidity
46303;BME280;32029;51.358;5.628;2023-11-18T00:02:00;102089.16;;;7.70;100.00
46303;BME280;32029;51.358;5.628;2023-11-18T00:04:27;102105.19;;;7.84;100.00
46303;BME280;32029;51.358;5.628;2023-11-18T00:06:54;102076.03;;;7.64;100.00
46303;BME280;32029;51.358;5.628;2023-11-18T00:09:24;102104.59;;;7.81;100.00
46303;BME280;32029;51.358;5.628;2023-11-18T00:11:51;102093.59;;;7.71;100.00
46303;BME280;32029;51.358;5.628;2023-11-18T00:14:18;102104.69;;;7.79;100.00
46303;BME280;32029;51.358;5.628;2023-11-18T00:16:46;102106.72;;;7.77;100.00
46303;BME280;32029;51.358;5.628;2023-11-18T00:19:13;102092.03;;;7.69;100.00
46303;BME280;32029;51.358;5.628;2023-11-18T00:21:41;102113.47;;;7.73;100.00
46303;BME280;32029;51.358;5.628;2023-11-18T00:24:10;102102.97;;;7.69;100.00
46303;BME280;32029;51.358;5.628;2023-11-18T00:26:38;102107.31;;;7.81;100.00
46303;BME280;32029;51.358;5.628;2023-11-18T00:29:04;102067.25;;;7.60;100.00
46303;BME280;32029;51.358;5.628;2023-11-18T00:31:32;102054.00;;;7.56;100.00
46303;BME280;32029;51.358;5.628;2023-11-18T00:33:59;102082.41;;;7.74;100.00
46303;BME280;32029;51.358;5.628;2023-11-18T00:36:27;102078.22;;;7.70;100.00
46303;BME280;32029;51.358;5.628;2023-11-18T00:38:56;102094.38;;;7.83;100.00
46303;BME280;32029;51.358;5.628;2023-11-18T00:41:23;102057.66;;;7.66;100.00
46303;BME280;32029;51.358;5.628;2023-11-18T00:43:50;102094.25;;;7.84;100.00
46303;BME280;32029;51.358;5.628;2023-11-18T00:46:18;102023.19;;;7.44;100.00
46303;BME280;32029;51.358;5.628;2023-11-18T00:48:46;102093.50;;;7.82;100.00
46303;BME280;32029;51.358;5.628;2023-11-18T00:51:14;102090.06;;;7.80;100.00
46303;BME280;32029;51.358;5.628;2023-11-18T00:53:41;102074.47;;;7.71;100.00
46303;BME280;32029;51.358;5.628;2023-11-18T00:56:14;102057.47;;;7.58;100.00
46303;BME280;32029;51.358;5.628;2023-11-18T00:58:43;102044.50;;;7.50;100.00
46303;BME280;32029;51.358;5.628;2023-11-18T01:01:10;102049.63;;;7.44;100.00
46303;BME280;32029;51.358;5.628;2023-11-18T01:03:38;102062.44;;;7.43;100.00
46303;BME280;32029;51.358;5.628;2023-11-18T01:06:05;102088.97;;;7.62;100.00
46303;BME280;32029;51.358;5.628;2023-11-18T01:08:33;102075.69;;;7.48;100.00
46303;BME280;32029;51.358;5.628;2023-11-18T01:11:00;102097.16;;;7.62;100.00
46303;BME280;32029;51.358;5.628;2023-11-18T01:13:27;102106.50;;;7.59;100.00
46303;BME280;32029;51.358;5.628;2023-11-18T01:15:55;102101.19;;;7.58;100.00
46303;BME280;32029;51.358;5.628;2023-11-18T01:18:23;102104.91;;;7.57;100.00
46303;BME280;32029;51.358;5.628;2023-11-18T01:20:50;102064.56;;;7.40;100.00
46303;BME280;32029;51.358;5.628;2023-11-18T01:23:18;102073.94;;;7.47;100.00
46303;BME280;32029;51.358;5.628;2023-11-18T01:25:46;102073.94;;;7.47;100.00
46303;BME280;32029;51.358;5.628;2023-11-18T01:28:14;102059.53;;;7.35;100.00
46303;BME280;32029;51.358;5.628;2023-11-18T01:30:43;102110.69;;;7.64;100.00
46303;BME280;32029;51.358;5.628;2023-11-18T01:33:13;102079.41;;;7.47;100.00
46303;BME280;32029;51.358;5.628;2023-11-18T01:35:42;102102.66;;;7.72;100.00
46303;BME280;32029;51.358;5.628;2023-11-18T01:38:10;102090.56;;;7.65;100.00
46303;BME280;32029;51.358;5.628;2023-11-18T01:40:39;102087.13;;;7.72;100.00
46303;BME280;32029;51.358;5.628;2023-11-18T01:43:09;102099.53;;;7.76;100.00
46303;BME280;32029;51.358;5.628;2023-11-18T01:45:39;102115.81;;;7.88;100.00
46303;BME280;32029;51.358;5.628;2023-11-18T01:48:08;102114.56;;;8.01;100.00
46303;BME280;32029;51.358;5.628;2023-11-18T01:50:39;102104.06;;;8.06;100.00
46303;BME280;32029;51.358;5.628;2023-11-18T01:53:08;102094.47;;;8.12;100.00
46303;BME280;32029;51.358;5.628;2023-11-18T01:55:36;102061.34;;;7.96;100.00
46303;BME280;32029;51.358;5.628;2023-11-18T01:58:06;102070.97;;;8.00;100.00
46303;BME280;32029;51.358;5.628;2023-11-18T02:00:41;102090.56;;;8.15;100.00
46303;BME280;32029;51.358;5.628;2023-11-18T02:03:09;102104.03;;;8.37;100.00
46303;BME280;32029;51.358;5.628;2023-11-18T02:05:36;102105.72;;;8.28;100.00
46303;BME280;32029;51.358;5.628;2023-11-18T02:08:04;102090.91;;;8.31;100.00
46303;BME280;32029;51.358;5.628;2023-11-18T02:10:37;102085.97;;;8.34;100.00
46303;BME280;32029;51.358;5.628;2023-11-18T02:13:22;102040.34;;;8.06;100.00
46303;BME280;32029;51.358;5.628;2023-11-18T02:15:56;102008.25;;;7.89;100.00
46303;BME280;32029;51.358;5.628;2023-11-18T02:18:27;102102.03;;;8.49;100.00
46303;BME280;32029;51.358;5.628;2023-11-18T02:20:57;102094.81;;;8.48;100.00
46303;BME280;32029;51.358;5.628;2023-11-18T02:23:25;102084.75;;;8.39;100.00
46303;BME280;32029;51.358;5.628;2023-11-18T02:25:56;102075.53;;;8.40;100.00
46303;BME280;32029;51.358;5.628;2023-11-18T02:28:24;102062.38;;;8.33;100.00
46303;BME280;32029;51.358;5.628;2023-11-18T02:30:56;102105.34;;;8.62;100.00
46303;BME280;32029;51.358;5.628;2023-11-18T02:33:33;102108.78;;;8.64;100.00
46303;BME280;32029;51.358;5.628;2023-11-18T02:36:16;102107.78;;;8.65;100.00
46303;BME280;32029;51.358;5.628;2023-11-18T02:38:50;102033.16;;;8.15;100.00
46303;BME280;32029;51.358;5.628;2023-11-18T02:41:19;102075.66;;;8.38;100.00
46303;BME280;32029;51.358;5.628;2023-11-18T02:43:49;102111.84;;;8.71;100.00
46303;BME280;32029;51.358;5.628;2023-11-18T02:46:17;102099.72;;;8.64;100.00
46303;BME280;32029;51.358;5.628;2023-11-18T02:48:45;102069.19;;;8.49;100.00
46303;BME280;32029;51.358;5.628;2023-11-18T02:51:13;102056.81;;;8.45;100.00
46303;BME280;32029;51.358;5.628;2023-11-18T02:53:40;102068.91;;;8.52;100.00
46303;BME280;32029;51.358;5.628;2023-11-18T02:56:08;102074.09;;;8.74;100.00
46303;BME280;32029;51.358;5.628;2023-11-18T02:58:35;102047.16;;;8.60;100.00
46303;BME280;32029;51.358;5.628;2023-11-18T03:01:03;102071.78;;;8.79;100.00
46303;BME280;32029;51.358;5.628;2023-11-18T03:03:31;102063.16;;;8.74;100.00
46303;BME280;32029;51.358;5.628;2023-11-18T03:05:59;102071.50;;;8.82;100.00
46303;BME280;32029;51.358;5.628;2023-11-18T03:08:27;102054.22;;;8.72;100.00
46303;BME280;32029;51.358;5.628;2023-11-18T03:10:57;102060.09;;;8.87;100.00
46303;BME280;32029;51.358;5.628;2023-11-18T03:13:26;102019.66;;;8.62;100.00
46303;BME280;32029;51.358;5.628;2023-11-18T03:15:53;102055.19;;;8.91;100.00
46303;BME280;32029;51.358;5.628;2023-11-18T03:18:20;102038.66;;;8.82;100.00
46303;BME280;32029;51.358;5.628;2023-11-18T03:20:48;102051.47;;;8.82;100.00
46303;BME280;32029;51.358;5.628;2023-11-18T03:23:15;102029.00;;;8.69;100.00
46303;BME280;32029;51.358;5.628;2023-11-18T03:25:44;102035.78;;;8.74;100.00
46303;BME280;32029;51.358;5.628;2023-11-18T03:28:12;101970.41;;;8.32;100.00
46303;BME280;32029;51.358;5.628;2023-11-18T03:30:39;101959.47;;;8.23;100.00
46303;BME280;32029;51.358;5.628;2023-11-18T03:33:08;102047.00;;;8.71;100.00
46303;BME280;32029;51.358;5.628;2023-11-18T03:35:37;102033.19;;;8.63;100.00
46303;BME280;32029;51.358;5.628;2023-11-18T03:38:04;102054.78;;;8.76;100.00
46303;BME280;32029;51.358;5.628;2023-11-18T03:40:32;102051.34;;;8.74;100.00
46303;BME280;32029;51.358;5.628;2023-11-18T03:43:02;102030.31;;;8.65;100.00
46303;BME280;32029;51.358;5.628;2023-11-18T03:45:30;102030.88;;;8.68;100.00
46303;BME280;32029;51.358;5.628;2023-11-18T03:47:57;102004.69;;;8.56;100.00
46303;BME280;32029;51.358;5.628;2023-11-18T03:50:25;102035.78;;;8.74;100.00
46303;BME280;32029;51.358;5.628;2023-11-18T03:52:53;102021.97;;;8.66;100.00
46303;BME280;32029;51.358;5.628;2023-11-18T03:55:20;102044.41;;;8.79;100.00
46303;BME280;32029;51.358;5.628;2023-11-18T03:57:48;102009.59;;;8.62;100.00
46303;BME280;32029;51.358;5.628;2023-11-18T04:00:16;101988.28;;;8.56;100.00
46303;BME280;32029;51.358;5.628;2023-11-18T04:02:43;102024.69;;;8.76;100.00
46303;BME280;32029;51.358;5.628;2023-11-18T04:05:13;101988.56;;;8.53;100.00
46303;BME280;32029;51.358;5.628;2023-11-18T04:07:41;102022.50;;;8.79;100.00
46303;BME280;32029;51.358;5.628;2023-11-18T04:10:11;102000.78;;;8.68;100.00
46303;BME280;32029;51.358;5.628;2023-11-18T04:12:38;101994.59;;;8.66;100.00
46303;BME280;32029;51.358;5.628;2023-11-18T04:15:06;101987.97;;;8.69;100.00
46303;BME280;32029;51.358;5.628;2023-11-18T04:17:33;102003.22;;;8.71;100.00
46303;BME280;32029;51.358;5.628;2023-11-18T04:20:00;101950.28;;;8.43;100.00
46303;BME280;32029;51.358;5.628;2023-11-18T04:22:27;101991.13;;;8.64;100.00
46303;BME280;32029;51.358;5.628;2023-11-18T04:24:54;101960.34;;;8.52;100.00
46303;BME280;32029;51.358;5.628;2023-11-18T04:27:22;101983.91;;;8.73;100.00
46303;BME280;32029;51.358;5.628;2023-11-18T04:29:49;101968.56;;;8.62;100.00
46303;BME280;32029;51.358;5.628;2023-11-18T04:32:16;101966.97;;;8.59;100.00
46303;BME280;32029;51.358;5.628;2023-11-18T04:34:44;101986.94;;;8.79;100.00
46303;BME280;32029;51.358;5.628;2023-11-18T04:37:12;101951.13;;;8.63;100.00
46303;BME280;32029;51.358;5.628;2023-11-18T04:39:39;101960.16;;;8.73;100.00
46303;BME280;32029;51.358;5.628;2023-11-18T04:42:06;101968.47;;;8.81;100.00
46303;BME280;32029;51.358;5.628;2023-11-18T04:44:34;101946.75;;;8.80;100.00
46303;BME280;32029;51.358;5.628;2023-11-18T04:47:01;101947.66;;;8.71;100.00
46303;BME280;32029;51.358;5.628;2023-11-18T04:49:29;101928.03;;;8.66;100.00
46303;BME280;32029;51.358;5.628;2023-11-18T04:51:57;101958.25;;;8.83;100.00
46303;BME280;32029;51.358;5.628;2023-11-18T04:54:26;101970.06;;;8.94;100.00
46303;BME280;32029;51.358;5.628;2023-11-18T04:56:53;101951.06;;;8.82;100.00
46303;BME280;32029;51.358;5.628;2023-11-18T04:59:21;101879.41;;;8.50;100.00
46303;BME280;32029;51.358;5.628;2023-11-18T05:01:48;101950.31;;;8.90;100.00
46303;BME280;32029;51.358;5.628;2023-11-18T05:04:16;101960.38;;;8.99;100.00
46303;BME280;32029;51.358;5.628;2023-11-18T05:06:43;101930.88;;;8.83;100.00
46303;BME280;32029;51.358;5.628;2023-11-18T05:09:12;101951.28;;;8.99;100.00
46303;BME280;32029;51.358;5.628;2023-11-18T05:11:39;101933.44;;;8.95;100.00
46303;BME280;32029;51.358;5.628;2023-11-18T05:14:07;101942.50;;;8.95;100.00
46303;BME280;32029;51.358;5.628;2023-11-18T05:16:35;101933.34;;;8.87;100.00
46303;BME280;32029;51.358;5.628;2023-11-18T05:19:02;101932.53;;;9.04;100.00
46303;BME280;32029;51.358;5.628;2023-11-18T05:21:30;101930.53;;;9.06;100.00
46303;BME280;32029;51.358;5.628;2023-11-18T05:24:04;101921.75;;;9.02;100.00
46303;BME280;32029;51.358;5.628;2023-11-18T05:26:32;101879.91;;;8.82;100.00
46303;BME280;32029;51.358;5.628;2023-11-18T05:29:01;101913.81;;;9.09;100.00
46303;BME280;32029;51.358;5.628;2023-11-18T05:31:29;101880.00;;;8.91;100.00
46303;BME280;32029;51.358;5.628;2023-11-18T05:33:58;101893.50;;;9.02;100.00
46303;BME280;32029;51.358;5.628;2023-11-18T05:36:25;101913.72;;;9.19;100.00
46303;BME280;32029;51.358;5.628;2023-11-18T05:38:58;101850.75;;;8.91;100.00
46303;BME280;32029;51.358;5.628;2023-11-18T05:41:26;101872.00;;;9.07;100.00
46303;BME280;32029;51.358;5.628;2023-11-18T05:43:57;101897.88;;;9.22;100.00
46303;BME280;32029;51.358;5.628;2023-11-18T05:46:25;101918.25;;;9.38;100.00
46303;BME280;32029;51.358;5.628;2023-11-18T05:48:57;101890.91;;;9.28;100.00
46303;BME280;32029;51.358;5.628;2023-11-18T05:51:26;101869.63;;;9.22;100.00
46303;BME280;32029;51.358;5.628;2023-11-18T05:53:54;101902.06;;;9.44;100.00
46303;BME280;32029;51.358;5.628;2023-11-18T05:56:22;101894.28;;;9.40;100.00
46303;BME280;32029;51.358;5.628;2023-11-18T05:58:52;101904.66;;;9.46;100.00
46303;BME280;32029;51.358;5.628;2023-11-18T06:01:23;101896.34;;;9.38;100.00
46303;BME280;32029;51.358;5.628;2023-11-18T06:03:51;101879.66;;;9.31;100.00
46303;BME280;32029;51.358;5.628;2023-11-18T06:06:19;101906.63;;;9.53;100.00
46303;BME280;32029;51.358;5.628;2023-11-18T06:08:48;101859.63;;;9.30;100.00
46303;BME280;32029;51.358;5.628;2023-11-18T06:11:15;101846.84;;;9.21;100.00
46303;BME280;32029;51.358;5.628;2023-11-18T06:13:52;101833.06;;;9.13;100.00
46303;BME280;32029;51.358;5.628;2023-11-18T06:16:24;101844.91;;;9.31;100.00
46303;BME280;32029;51.358;5.628;2023-11-18T06:18:53;101845.78;;;9.50;100.00
46303;BME280;32029;51.358;5.628;2023-11-18T06:21:25;101850.47;;;9.57;100.00
46303;BME280;32029;51.358;5.628;2023-11-18T06:24:01;101851.25;;;9.50;100.00
46303;BME280;32029;51.358;5.628;2023-11-18T06:26:30;101872.78;;;9.45;100.00
46303;BME280;32029;51.358;5.628;2023-11-18T06:28:57;101893.59;;;9.55;100.00
46303;BME280;32029;51.358;5.628;2023-11-18T06:31:27;101838.16;;;9.26;100.00
46303;BME280;32029;51.358;5.628;2023-11-18T06:33:56;101864.34;;;9.56;100.00
46303;BME280;32029;51.358;5.628;2023-11-18T06:36:23;101874.69;;;9.62;100.00
46303;BME280;32029;51.358;5.628;2023-11-18T06:38:53;101854.84;;;9.50;100.00
46303;BME280;32029;51.358;5.628;2023-11-18T06:41:22;101882.59;;;9.65;100.00
46303;BME280;32029;51.358;5.628;2023-11-18T06:43:50;101876.63;;;9.70;100.00
46303;BME280;32029;51.358;5.628;2023-11-18T06:46:25;101815.50;;;9.33;100.00
46303;BME280;32029;51.358;5.628;2023-11-18T06:48:54;101871.00;;;9.71;100.00
46303;BME280;32029;51.358;5.628;2023-11-18T06:51:21;101862.25;;;9.68;100.00
46303;BME280;32029;51.358;5.628;2023-11-18T06:53:52;101872.88;;;9.71;100.00
46303;BME280;32029;51.358;5.628;2023-11-18T06:56:21;101871.72;;;9.73;100.00
46303;BME280;32029;51.358;5.628;2023-11-18T06:58:48;101859.72;;;9.74;100.00
46303;BME280;32029;51.358;5.628;2023-11-18T07:01:16;101833.00;;;9.58;100.00
46303;BME280;32029;51.358;5.628;2023-11-18T07:03:44;101868.00;;;9.82;100.00
46303;BME280;32029;51.358;5.628;2023-11-18T07:06:11;101845.31;;;9.72;100.00
46303;BME280;32029;51.358;5.628;2023-11-18T07:08:41;101852.22;;;9.76;100.00
46303;BME280;32029;51.358;5.628;2023-11-18T07:11:08;101860.13;;;9.79;100.00
46303;BME280;32029;51.358;5.628;2023-11-18T07:13:35;101851.72;;;9.81;100.00
46303;BME280;32029;51.358;5.628;2023-11-18T07:16:02;101843.69;;;9.79;100.00
46303;BME280;32029;51.358;5.628;2023-11-18T07:18:31;101842.66;;;9.80;100.00
46303;BME280;32029;51.358;5.628;2023-11-18T07:21:02;101801.34;;;9.56;100.00
46303;BME280;32029;51.358;5.628;2023-11-18T07:23:31;101823.72;;;9.69;100.00
46303;BME280;32029;51.358;5.628;2023-11-18T07:25:59;101840.28;;;9.86;100.00
46303;BME280;32029;51.358;5.628;2023-11-18T07:28:27;101816.81;;;9.65;100.00
46303;BME280;32029;51.358;5.628;2023-11-18T07:30:55;101842.34;;;9.84;100.00
46303;BME280;32029;51.358;5.628;2023-11-18T07:33:22;101848.50;;;9.86;100.00
46303;BME280;32029;51.358;5.628;2023-11-18T07:35:50;101828.47;;;9.67;100.00
46303;BME280;32029;51.358;5.628;2023-11-18T07:38:17;101803.34;;;9.54;100.00
46303;BME280;32029;51.358;5.628;2023-11-18T07:40:47;101839.19;;;9.78;100.00
46303;BME280;32029;51.358;5.628;2023-11-18T07:43:15;101820.25;;;9.67;100.00
46303;BME280;32029;51.358;5.628;2023-11-18T07:45:42;101822.69;;;9.70;100.00
46303;BME280;32029;51.358;5.628;2023-11-18T07:48:10;101856.50;;;9.97;100.00
46303;BME280;32029;51.358;5.628;2023-11-18T07:50:40;101804.44;;;9.61;100.00
46303;BME280;32029;51.358;5.628;2023-11-18T07:53:10;101835.34;;;9.89;100.00
46303;BME280;32029;51.358;5.628;2023-11-18T07:55:37;101832.44;;;9.91;100.00
46303;BME280;32029;51.358;5.628;2023-11-18T07:58:09;101846.88;;;9.93;100.00
46303;BME280;32029;51.358;5.628;2023-11-18T08:00:40;101873.25;;;10.12;100.00
46303;BME280;32029;51.358;5.628;2023-11-18T08:03:08;101803.56;;;9.78;100.00
46303;BME280;32029;51.358;5.628;2023-11-18T08:05:39;101844.66;;;10.14;100.00
46303;BME280;32029;51.358;5.628;2023-11-18T08:08:13;101857.53;;;10.22;100.00
46303;BME280;32029;51.358;5.628;2023-11-18T08:10:44;101805.03;;;9.91;100.00
46303;BME280;32029;51.358;5.628;2023-11-18T08:13:11;101848.31;;;10.23;100.00
46303;BME280;32029;51.358;5.628;2023-11-18T08:15:40;101855.78;;;10.30;100.00
46303;BME280;32029;51.358;5.628;2023-11-18T08:18:10;101867.50;;;10.41;100.00
46303;BME280;32029;51.358;5.628;2023-11-18T08:20:38;101852.31;;;10.28;100.00
46303;BME280;32029;51.358;5.628;2023-11-18T08:23:05;101864.06;;;10.39;100.00
46303;BME280;32029;51.358;5.628;2023-11-18T08:25:34;101801.16;;;10.19;100.00
46303;BME280;32029;51.358;5.628;2023-11-18T08:28:01;101816.34;;;10.32;100.00
46303;BME280;32029;51.358;5.628;2023-11-18T08:30:29;101808.44;;;10.28;100.00
46303;BME280;32029;51.358;5.628;2023-11-18T08:32:57;101826.00;;;10.44;100.00
46303;BME280;32029;51.358;5.628;2023-11-18T08:35:25;101832.25;;;10.54;100.00
46303;BME280;32029;51.358;5.628;2023-11-18T08:37:52;101800.25;;;10.37;100.00
46303;BME280;32029;51.358;5.628;2023-11-18T08:40:19;101812.38;;;10.60;100.00
46303;BME280;32029;51.358;5.628;2023-11-18T08:42:53;101834.41;;;10.76;100.00
46303;BME280;32029;51.358;5.628;2023-11-18T08:45:25;101834.94;;;10.80;100.00
46303;BME280;32029;51.358;5.628;2023-11-18T08:48:01;101830.66;;;10.77;100.00
46303;BME280;32029;51.358;5.628;2023-11-18T08:50:31;101830.00;;;10.84;100.00
46303;BME280;32029;51.358;5.628;2023-11-18T08:52:59;101812.66;;;10.83;100.00
46303;BME280;32029;51.358;5.628;2023-11-18T08:55:29;101813.53;;;10.84;100.00
46303;BME280;32029;51.358;5.628;2023-11-18T08:58:06;101810.41;;;10.78;100.00
46303;BME280;32029;51.358;5.628;2023-11-18T09:00:47;101818.84;;;10.77;100.00
46303;BME280;32029;51.358;5.628;2023-11-18T09:03:32;101816.97;;;10.86;100.00
46303;BME280;32029;51.358;5.628;2023-11-18T09:06:04;101805.28;;;10.84;100.00
46303;BME280;32029;51.358;5.628;2023-11-18T09:08:34;101804.94;;;10.78;100.00
46303;BME280;32029;51.358;5.628;2023-11-18T09:11:04;101778.75;;;10.58;100.00
46303;BME280;32029;51.358;5.628;2023-11-18T09:13:35;101815.59;;;10.82;100.00
46303;BME280;32029;51.358;5.628;2023-11-18T09:16:03;101810.41;;;10.78;100.00
46303;BME280;32029;51.358;5.628;2023-11-18T09:18:31;101794.28;;;10.75;100.00
46303;BME280;32029;51.358;5.628;2023-11-18T09:21:04;101806.84;;;10.86;100.00
46303;BME280;32029;51.358;5.628;2023-11-18T09:23:34;101791.75;;;10.90;100.00
46303;BME280;32029;51.358;5.628;2023-11-18T09:26:02;101741.56;;;10.64;100.00
46303;BME280;32029;51.358;5.628;2023-11-18T09:28:35;101697.25;;;10.50;100.00
46303;BME280;32029;51.358;5.628;2023-11-18T09:31:02;101752.75;;;10.70;100.00
46303;BME280;32029;51.358;5.628;2023-11-18T09:33:35;101765.47;;;10.88;100.00
46303;BME280;32029;51.358;5.628;2023-11-18T09:36:03;101770.00;;;10.97;100.00
46303;BME280;32029;51.358;5.628;2023-11-18T09:38:36;101773.41;;;10.99;100.00
46303;BME280;32029;51.358;5.628;2023-11-18T09:41:05;101749.00;;;10.88;100.00
46303;BME280;32029;51.358;5.628;2023-11-18T09:43:39;101721.53;;;10.79;100.00
46303;BME280;32029;51.358;5.628;2023-11-18T09:46:20;101744.75;;;10.93;100.00
46303;BME280;32029;51.358;5.628;2023-11-18T09:49:03;101745.63;;;11.02;100.00
46303;BME280;32029;51.358;5.628;2023-11-18T09:51:44;101716.06;;;10.88;100.00
46303;BME280;32029;51.358;5.628;2023-11-18T09:54:27;101715.19;;;10.87;100.00
46303;BME280;32029;51.358;5.628;2023-11-18T09:57:07;101692.34;;;10.70;100.00
46303;BME280;32029;51.358;5.628;2023-11-18T10:02:41;101708.81;;;10.70;100.00
46303;BME280;32029;51.358;5.628;2023-11-18T10:05:09;101718.06;;;10.61;100.00
46303;BME280;32029;51.358;5.628;2023-11-18T10:07:41;101727.84;;;10.72;100.00
46303;BME280;32029;51.358;5.628;2023-11-18T10:10:09;101702.97;;;10.57;100.00
46303;BME280;32029;51.358;5.628;2023-11-18T10:12:48;101716.69;;;10.65;100.00
46303;BME280;32029;51.358;5.628;2023-11-18T10:15:24;101710.50;;;10.63;100.00
46303;BME280;32029;51.358;5.628;2023-11-18T10:17:53;101701.44;;;10.71;100.00
46303;BME280;32029;51.358;5.628;2023-11-18T10:20:44;101565.00;;;9.96;100.00
46303;BME280;32029;51.358;5.628;2023-11-18T10:23:16;101694.91;;;10.72;100.00
46303;BME280;32029;51.358;5.628;2023-11-18T10:25:49;101692.88;;;10.74;100.00
46303;BME280;32029;51.358;5.628;2023-11-18T10:28:28;101669.34;;;10.63;100.00
46303;BME280;32029;51.358;5.628;2023-11-18T10:30:57;101693.25;;;10.87;100.00
46303;BME280;32029;51.358;5.628;2023-11-18T10:33:27;101644.97;;;10.68;100.00
46303;BME280;32029;51.358;5.628;2023-11-18T10:35:59;101673.69;;;10.98;100.00
46303;BME280;32029;51.358;5.628;2023-11-18T10:38:32;101611.03;;;10.77;100.00
46303;BME280;32029;51.358;5.628;2023-11-18T10:41:03;101643.34;;;11.00;100.00
46303;BME280;32029;51.358;5.628;2023-11-18T10:43:31;101625.81;;;10.85;100.00
46303;BME280;32029;51.358;5.628;2023-11-18T10:46:09;101622.03;;;11.02;100.00
46303;BME280;32029;51.358;5.628;2023-11-18T10:48:44;101643.69;;;11.21;100.00
46303;BME280;32029;51.358;5.628;2023-11-18T10:51:18;101624.25;;;11.15;100.00
46303;BME280;32029;51.358;5.628;2023-11-18T10:53:53;101612.44;;;10.98;100.00
46303;BME280;32029;51.358;5.628;2023-11-18T10:56:26;101610.03;;;11.03;100.00
46303;BME280;32029;51.358;5.628;2023-11-18T10:58:59;101612.25;;;10.99;100.00
46303;BME280;32029;51.358;5.628;2023-11-18T11:01:34;101626.16;;;11.22;100.00
46303;BME280;32029;51.358;5.628;2023-11-18T11:04:09;101627.72;;;11.25;100.00
46303;BME280;32029;51.358;5.628;2023-11-18T11:06:44;101567.63;;;10.97;100.00
46303;BME280;32029;51.358;5.628;2023-11-18T11:09:19;101543.94;;;10.88;100.00
46303;BME280;32029;51.358;5.628;2023-11-18T11:12:10;101433.78;;;10.18;100.00
46303;BME280;32029;51.358;5.628;2023-11-18T11:15:00;101508.59;;;10.61;100.00
46303;BME280;32029;51.358;5.628;2023-11-18T11:17:36;101475.16;;;10.49;100.00
46303;BME280;32029;51.358;5.628;2023-11-18T11:20:11;101482.00;;;10.53;100.00
46303;BME280;32029;51.358;5.628;2023-11-18T11:23:20;101497.13;;;10.65;100.00
46303;BME280;32029;51.358;5.628;2023-11-18T11:26:07;101261.19;;;9.35;100.00
46303;BME280;32029;51.358;5.628;2023-11-18T11:31:23;101456.44;;;10.61;100.00
46303;BME280;32029;51.358;5.628;2023-11-18T11:33:58;101590.06;;;11.50;100.00
46303;BME280;32029;51.358;5.628;2023-11-18T11:36:30;101385.31;;;10.26;100.00
46303;BME280;32029;51.358;5.628;2023-11-18T11:39:01;101530.16;;;11.37;100.00
46303;BME280;32029;51.358;5.628;2023-11-18T11:41:30;101509.56;;;11.33;100.00
46303;BME280;32029;51.358;5.628;2023-11-18T11:44:02;101538.16;;;11.63;100.00
46303;BME280;32029;51.358;5.628;2023-11-18T11:46:33;101533.66;;;11.62;100.00
46303;BME280;32029;51.358;5.628;2023-11-18T11:49:02;101475.03;;;11.31;100.00
46303;BME280;32029;51.358;5.628;2023-11-18T11:52:09;101480.84;;;11.44;100.00
46303;BME280;32029;51.358;5.628;2023-11-18T11:55:12;101473.63;;;11.43;100.00
46303;BME280;32029;51.358;5.628;2023-11-18T11:57:32;101472.59;;;11.44;100.00
46303;BME280;32029;51.358;5.628;2023-11-18T12:00:09;101373.38;;;10.83;100.00
46303;BME280;32029;51.358;5.628;2023-11-18T12:02:50;101440.91;;;11.25;100.00
46303;BME280;32029;51.358;5.628;2023-11-18T12:05:25;101485.63;;;11.50;100.00
46303;BME280;32029;51.358;5.628;2023-11-18T12:07:52;101472.25;;;11.47;100.00
46303;BME280;32029;51.358;5.628;2023-11-18T12:10:32;101411.59;;;11.09;100.00
46303;BME280;32029;51.358;5.628;2023-11-18T12:13:09;101438.31;;;11.32;100.00
46303;BME280;32029;51.358;5.628;2023-11-18T12:15:49;101424.59;;;11.23;100.00
46303;BME280;32029;51.358;5.628;2023-11-18T12:18:31;101392.06;;;11.04;100.00
46303;BME280;32029;51.358;5.628;2023-11-18T12:21:03;101408.81;;;11.17;100.00
46303;BME280;32029;51.358;5.628;2023-11-18T12:23:30;101389.13;;;11.06;100.00
46303;BME280;32029;51.358;5.628;2023-11-18T12:26:01;101367.50;;;11.02;100.00
46303;BME280;32029;51.358;5.628;2023-11-18T12:28:30;101359.94;;;11.04;100.00
46303;BME280;32029;51.358;5.628;2023-11-18T12:31:01;101344.31;;;11.05;100.00
46303;BME280;32029;51.358;5.628;2023-11-18T12:42:10;101340.34;;;11.16;100.00
46303;BME280;32029;51.358;5.628;2023-11-18T12:47:33;101281.97;;;10.74;100.00
46303;BME280;32029;51.358;5.628;2023-11-18T12:50:09;101272.53;;;10.77;100.00
46303;BME280;32029;51.358;5.628;2023-11-18T12:52:44;101324.31;;;11.19;100.00
46303;BME280;32029;51.358;5.628;2023-11-18T12:55:12;101291.84;;;11.00;100.00
46303;BME280;32029;51.358;5.628;2023-11-18T12:57:46;101269.53;;;10.95;100.00
46303;BME280;32029;51.358;5.628;2023-11-18T13:00:17;101247.75;;;10.93;100.00
46303;BME280;32029;51.358;5.628;2023-11-18T13:02:45;101259.84;;;11.07;100.00
46303;BME280;32029;51.358;5.628;2023-11-18T13:05:12;101272.56;;;11.08;100.00
46303;BME280;32029;51.358;5.628;2023-11-18T13:07:40;101259.53;;;11.02;100.00
46303;BME280;32029;51.358;5.628;2023-11-18T13:10:07;101264.72;;;10.97;100.00
46303;BME280;32029;51.358;5.628;2023-11-18T13:12:34;101273.63;;;10.99;100.00
46303;BME280;32029;51.358;5.628;2023-11-18T13:15:02;101263.94;;;11.11;100.00
46303;BME280;32029;51.358;5.628;2023-11-18T13:17:29;101246.06;;;11.15;100.00
46303;BME280;32029;51.358;5.628;2023-11-18T13:19:56;101250.16;;;11.19;100.00